createdAt,value
2022-10-22T00:01:36.821Z,21.40
2022-10-22T00:05:40.678Z,19.00
2022-10-22T00:09:44.087Z,20.53
2022-10-22T00:13:48.259Z,20.50
2022-10-22T00:17:52.964Z,20.70
2022-10-22T00:21:56.265Z,20.60
2022-10-22T00:25:59.575Z,20.27
2022-10-22T00:30:02.960Z,21.70
2022-10-22T00:34:07.657Z,21.93
2022-10-22T00:38:10.993Z,22.20
2022-10-22T00:42:19.058Z,20.40
2022-10-22T00:46:22.347Z,19.87
2022-10-22T00:50:31.208Z,21.17
2022-10-22T00:54:35.269Z,19.50
2022-10-22T00:58:43.073Z,20.63
2022-10-22T01:02:46.581Z,20.03
2022-10-22T01:06:52.080Z,20.57
2022-10-22T01:11:04.141Z,19.33
2022-10-22T01:15:17.109Z,18.60
2022-10-22T01:19:35.733Z,19.03
2022-10-22T01:24:22.700Z,20.13
2022-10-22T01:28:44.239Z,18.83
2022-10-22T01:32:50.719Z,19.90
2022-10-22T01:36:55.944Z,19.70
2022-10-22T01:41:00.599Z,19.40
2022-10-22T01:45:12.962Z,18.70
2022-10-22T01:49:24.736Z,19.73
2022-10-22T01:53:38.766Z,19.20
2022-10-22T01:57:51.593Z,20.97
2022-10-22T02:02:03.552Z,20.00
2022-10-22T02:06:13.336Z,20.90
2022-10-22T02:10:18.967Z,21.37
2022-10-22T02:14:23.083Z,21.43
2022-10-22T02:18:31.495Z,20.27
2022-10-22T02:22:37.322Z,22.93
2022-10-22T02:26:44.529Z,20.83
2022-10-22T02:30:54.993Z,21.80
2022-10-22T02:35:01.847Z,21.90
2022-10-22T02:39:06.050Z,21.47
2022-10-22T02:43:10.557Z,21.67
2022-10-22T02:47:13.834Z,21.47
2022-10-22T02:51:18.536Z,21.53
2022-10-22T02:55:21.821Z,21.40
2022-10-22T02:59:25.395Z,20.47
2022-10-22T03:03:28.831Z,20.90
2022-10-22T03:07:33.673Z,23.47
2022-10-22T03:11:37.006Z,20.60
2022-10-22T03:15:40.712Z,20.17
2022-10-22T03:19:50.222Z,21.20
2022-10-22T03:23:55.896Z,20.00
2022-10-22T03:28:04.344Z,20.37
2022-10-22T03:32:07.729Z,20.60
2022-10-22T03:36:11.543Z,21.87
2022-10-22T03:40:16.398Z,21.50
2022-10-22T03:44:19.896Z,18.17
2022-10-22T03:48:23.270Z,21.03
2022-10-22T03:52:26.604Z,18.07
2022-10-22T03:56:31.867Z,20.10
2022-10-22T04:00:36.394Z,20.97
2022-10-22T04:04:40.127Z,19.40
2022-10-22T04:08:45.369Z,18.80
2022-10-22T04:12:50.485Z,20.60
2022-10-22T04:16:53.798Z,18.43
2022-10-22T04:20:57.166Z,22.73
2022-10-22T04:25:00.472Z,22.17
2022-10-22T04:29:05.179Z,19.70
2022-10-22T04:33:08.443Z,19.80
2022-10-22T04:37:11.786Z,18.23
2022-10-22T04:41:17.656Z,20.10
2022-10-22T04:45:22.330Z,19.50
2022-10-22T04:49:25.902Z,20.30
2022-10-22T04:53:29.521Z,19.03
2022-10-22T04:57:33.157Z,22.50
2022-10-22T05:01:42.734Z,19.67
2022-10-22T05:05:46.511Z,19.70
2022-10-22T05:09:49.805Z,19.70
2022-10-22T05:13:53.430Z,20.13
2022-10-22T05:17:58.129Z,20.13
2022-10-22T05:22:02.800Z,22.67
2022-10-22T05:26:07.878Z,21.87
2022-10-22T05:30:11.861Z,22.07
2022-10-22T05:34:17.427Z,21.77
2022-10-22T05:38:20.803Z,20.60
2022-10-22T05:42:24.318Z,20.60
2022-10-22T05:46:32.278Z,19.87
2022-10-22T05:50:39.171Z,19.33
2022-10-22T05:54:44.016Z,20.63
2022-10-22T05:58:47.937Z,21.63
2022-10-22T06:02:52.356Z,20.43
2022-10-22T06:06:57.185Z,22.40
2022-10-22T06:11:15.778Z,20.10
2022-10-22T06:15:20.364Z,20.27
2022-10-22T06:19:25.830Z,22.87
2022-10-22T06:23:30.520Z,24.60
2022-10-22T06:27:33.858Z,24.30
2022-10-22T06:31:37.763Z,22.50
2022-10-22T06:35:41.015Z,23.00
2022-10-22T06:39:45.664Z,23.27
2022-10-22T06:43:49.131Z,22.70
2022-10-22T06:47:52.424Z,23.83
2022-10-22T06:51:56.349Z,23.13
2022-10-22T06:56:01.042Z,22.83
2022-10-22T07:00:04.653Z,22.13
2022-10-22T07:04:09.135Z,21.47
2022-10-22T07:08:12.423Z,19.13
2022-10-22T07:12:17.545Z,19.37
2022-10-22T07:16:20.866Z,21.10
2022-10-22T07:20:24.220Z,17.63
2022-10-22T07:24:28.724Z,17.87
2022-10-22T07:28:33.673Z,17.80
2022-10-22T07:32:37.226Z,16.70
2022-10-22T07:36:40.497Z,17.80
2022-10-22T07:40:46.775Z,17.63
2022-10-22T07:44:51.476Z,16.63
2022-10-22T07:48:55.280Z,18.43
2022-10-22T07:52:58.631Z,17.97
2022-10-22T07:57:02.468Z,18.27
2022-10-22T08:01:07.507Z,16.57
2022-10-22T08:05:13.420Z,17.37
2022-10-22T08:09:16.789Z,12.40
2022-10-22T08:13:20.365Z,11.97
2022-10-22T08:17:25.084Z,11.80
2022-10-22T08:21:28.496Z,12.53
2022-10-22T08:25:31.851Z,12.50
2022-10-22T08:29:35.161Z,11.80
2022-10-22T08:33:40.205Z,12.73
2022-10-22T08:37:43.727Z,13.00
2022-10-22T08:41:55.412Z,14.20
2022-10-22T08:46:10.239Z,13.63
2022-10-22T08:50:20.460Z,12.97
2022-10-22T08:54:38.284Z,14.27
2022-10-22T08:58:48.511Z,12.80
2022-10-22T09:03:07.304Z,12.37
2022-10-22T09:07:12.585Z,13.27
2022-10-22T09:11:24.016Z,12.97
2022-10-22T09:15:28.183Z,12.13
2022-10-22T09:19:41.529Z,11.87
2022-10-22T09:23:57.670Z,12.70
2022-10-22T09:28:00.963Z,11.27
2022-10-22T09:32:07.309Z,12.23
2022-10-22T09:36:15.309Z,14.23
2022-10-22T09:40:20.523Z,13.60
2022-10-22T09:44:23.872Z,12.30
2022-10-22T09:48:34.496Z,12.93
2022-10-22T09:52:44.894Z,13.50
2022-10-22T09:56:58.269Z,12.37
2022-10-22T10:01:02.689Z,11.60
2022-10-22T10:05:07.050Z,11.10
2022-10-22T10:09:16.943Z,10.30
2022-10-22T10:13:48.567Z,12.47
2022-10-22T10:18:00.654Z,14.13
2022-10-22T10:22:15.515Z,11.80
2022-10-22T10:26:25.660Z,11.83
2022-10-22T10:30:31.425Z,39.47
2022-10-22T10:34:45.236Z,12.90
2022-10-22T10:38:57.912Z,12.20
2022-10-22T10:43:08.205Z,13.40
2022-10-22T10:47:21.735Z,10.33
2022-10-22T10:51:36.888Z,9.30
2022-10-22T10:55:50.826Z,14.37
2022-10-22T11:00:07.102Z,12.50
2022-10-22T11:04:25.981Z,13.30
2022-10-22T11:08:34.009Z,14.07
2022-10-22T11:12:43.703Z,17.40
2022-10-22T11:16:51.833Z,12.43
2022-10-22T11:21:08.556Z,12.20
2022-10-22T11:25:19.857Z,11.87
2022-10-22T11:29:32.035Z,11.33
2022-10-22T11:33:43.788Z,11.20
2022-10-22T11:37:49.583Z,12.50
2022-10-22T11:41:54.701Z,10.70
2022-10-22T11:46:09.784Z,9.30
2022-10-22T11:50:22.899Z,9.17
2022-10-22T11:54:43.518Z,9.70
2022-10-22T11:58:53.734Z,9.00
2022-10-22T12:03:06.117Z,9.40
2022-10-22T12:07:33.802Z,10.23
2022-10-22T12:11:41.617Z,10.50
2022-10-22T12:15:49.446Z,11.97
2022-10-22T12:20:02.073Z,10.87
2022-10-22T12:24:07.560Z,10.30
2022-10-22T12:28:14.390Z,10.63
2022-10-22T12:32:18.101Z,11.13
2022-10-22T12:36:21.395Z,13.40
2022-10-22T12:40:27.416Z,16.43
2022-10-22T12:44:34.353Z,15.17
2022-10-22T12:48:40.620Z,13.03
2022-10-22T12:52:44.445Z,13.90
2022-10-22T12:56:49.375Z,14.90
2022-10-22T13:01:01.989Z,16.40
2022-10-22T13:05:16.478Z,15.90
2022-10-22T13:09:25.158Z,23.13
2022-10-22T13:13:32.896Z,19.00
2022-10-22T13:17:42.501Z,18.17
2022-10-22T13:21:50.272Z,17.73
2022-10-22T13:26:01.903Z,17.33
2022-10-22T13:30:18.776Z,17.93
2022-10-22T13:34:25.812Z,16.90
2022-10-22T13:38:30.260Z,15.53
2022-10-22T13:42:34.009Z,16.60
2022-10-22T13:46:42.937Z,16.53
2022-10-22T13:50:48.136Z,15.10
2022-10-22T13:54:51.489Z,14.83
2022-10-22T13:58:54.848Z,15.07
2022-10-22T14:03:00.196Z,14.83
2022-10-22T14:07:04.995Z,14.60
2022-10-22T14:11:10.131Z,14.10
2022-10-22T14:15:16.149Z,12.03
2022-10-22T14:19:19.774Z,13.20
2022-10-22T14:23:26.733Z,15.20
2022-10-22T14:27:30.109Z,12.53
2022-10-22T14:31:33.920Z,14.63
2022-10-22T14:35:37.305Z,13.97
2022-10-22T14:39:52.781Z,13.97
2022-10-22T14:43:56.682Z,14.93
2022-10-22T14:48:00.412Z,15.23
2022-10-22T14:52:04.927Z,13.70
2022-10-22T14:56:17.940Z,13.47
2022-10-22T15:00:22.589Z,12.60
2022-10-22T15:04:27.842Z,14.83
2022-10-22T15:08:41.780Z,14.13
2022-10-22T15:12:47.352Z,12.20
2022-10-22T15:16:51.432Z,13.50
2022-10-22T15:20:59.968Z,14.00
2022-10-22T15:25:04.367Z,13.40
2022-10-22T15:29:09.590Z,14.00
2022-10-22T15:33:13.243Z,14.33
2022-10-22T15:37:16.840Z,18.30
2022-10-22T15:41:20.693Z,19.90
2022-10-22T15:45:25.982Z,15.63
2022-10-22T15:49:30.118Z,15.80
2022-10-22T15:53:33.694Z,15.07
2022-10-22T15:57:37.061Z,16.27
2022-10-22T16:01:42.453Z,20.57
2022-10-22T16:05:54.486Z,22.63
2022-10-22T16:09:58.850Z,22.37
2022-10-22T16:14:02.402Z,23.53
2022-10-22T16:18:07.885Z,23.07
2022-10-22T16:22:14.252Z,28.90
2022-10-22T16:26:18.834Z,25.03
2022-10-22T16:30:22.238Z,27.20
2022-10-22T16:34:29.668Z,25.57
2022-10-22T16:38:33.510Z,24.77
2022-10-22T16:42:37.226Z,24.40
2022-10-22T16:46:40.973Z,21.80
2022-10-22T16:50:47.412Z,19.13
2022-10-22T16:54:51.162Z,20.13
2022-10-22T16:58:56.702Z,20.10
2022-10-22T17:03:01.150Z,23.40
2022-10-22T17:07:07.141Z,22.83
2022-10-22T17:11:13.488Z,22.93
2022-10-22T17:15:18.832Z,20.97
2022-10-22T17:19:24.573Z,19.13
2022-10-22T17:23:33.270Z,17.47
2022-10-22T17:27:38.304Z,17.90
2022-10-22T17:31:44.291Z,17.33
2022-10-22T17:35:54.054Z,18.73
2022-10-22T17:40:02.296Z,16.23
2022-10-22T17:44:14.066Z,18.60
2022-10-22T17:48:20.245Z,18.53
2022-10-22T17:52:25.861Z,19.00
2022-10-22T17:56:32.183Z,16.30
2022-10-22T18:00:38.461Z,15.20
2022-10-22T18:04:45.443Z,15.70
2022-10-22T18:13:03.670Z,15.00
2022-10-22T18:17:08.467Z,16.00
2022-10-22T18:21:26.021Z,14.47
2022-10-22T18:25:36.743Z,19.80
2022-10-22T18:29:48.716Z,18.80
2022-10-22T18:37:59.408Z,18.50
2022-10-22T18:42:08.240Z,16.87
2022-10-22T18:46:18.391Z,15.30
2022-10-22T18:50:24.301Z,16.20
2022-10-22T18:54:30.600Z,17.90
2022-10-22T18:58:40.408Z,17.20
2022-10-22T19:02:47.223Z,18.27
2022-10-22T19:06:52.580Z,17.07
2022-10-22T19:11:01.816Z,18.53
2022-10-22T19:15:08.427Z,17.73
2022-10-22T19:19:18.866Z,16.83
2022-10-22T19:23:23.806Z,15.77
2022-10-22T19:27:36.115Z,20.13
2022-10-22T19:31:44.375Z,19.87
2022-10-22T19:35:52.194Z,18.83
2022-10-22T19:39:57.362Z,16.97
2022-10-22T19:44:08.715Z,21.97
2022-10-22T19:48:13.470Z,20.03
2022-10-22T19:52:19.392Z,15.23
2022-10-22T19:56:25.234Z,14.53
2022-10-22T20:00:30.435Z,18.83
2022-10-22T20:04:34.806Z,23.00
2022-10-22T20:08:40.834Z,20.50
2022-10-22T20:12:46.107Z,17.13
2022-10-22T20:16:53.467Z,14.33
2022-10-22T20:20:57.632Z,16.87
2022-10-22T20:25:02.513Z,19.40
2022-10-22T20:29:06.722Z,15.40
2022-10-22T20:33:10.337Z,11.50
2022-10-22T20:37:14.597Z,21.70
2022-10-22T20:41:23.628Z,19.53
2022-10-22T20:45:31.308Z,17.57
2022-10-22T20:49:37.860Z,18.77
2022-10-22T20:53:41.833Z,18.00
2022-10-22T20:57:53.276Z,16.50
2022-10-22T21:01:57.293Z,15.47
2022-10-22T21:06:00.664Z,13.90
2022-10-22T21:10:04.257Z,13.53
2022-10-22T21:14:11.040Z,13.90
2022-10-22T21:18:14.526Z,15.00
2022-10-22T21:22:17.816Z,13.20
2022-10-22T21:26:21.915Z,14.60
2022-10-22T21:30:26.665Z,16.10
2022-10-22T21:34:30.129Z,17.07
2022-10-22T21:38:33.886Z,13.73
2022-10-22T21:42:37.330Z,8.47
2022-10-22T21:46:42.032Z,8.87
2022-10-22T21:50:45.885Z,8.03
2022-10-22T21:54:49.241Z,8.40
2022-10-22T21:59:35.934Z,14.20
2022-10-22T22:03:43.407Z,12.20
2022-10-22T22:07:47.052Z,13.40
2022-10-22T22:11:50.379Z,11.70
2022-10-22T22:15:53.919Z,10.20
2022-10-22T22:19:58.673Z,12.63
2022-10-22T22:24:02.070Z,13.03
2022-10-22T22:28:05.775Z,10.17
2022-10-22T22:32:09.190Z,11.73
2022-10-22T22:36:14.010Z,10.17
2022-10-22T22:40:26.171Z,10.20
2022-10-22T22:44:30.767Z,9.80
2022-10-22T22:48:34.414Z,11.73
2022-10-22T22:52:39.335Z,11.27
2022-10-22T22:56:42.860Z,12.57
2022-10-22T23:01:17.862Z,11.90
2022-10-22T23:05:21.317Z,11.50
2022-10-22T23:09:26.240Z,11.93
2022-10-22T23:13:29.548Z,13.20
2022-10-22T23:17:33.020Z,11.90
2022-10-22T23:21:38.763Z,11.23
2022-10-22T23:25:43.568Z,12.10
2022-10-22T23:29:47.313Z,12.87
2022-10-22T23:33:51.030Z,11.50
2022-10-22T23:37:54.488Z,11.77
2022-10-22T23:41:59.858Z,9.60
2022-10-22T23:46:03.576Z,10.57
2022-10-22T23:50:07.774Z,10.67
2022-10-22T23:54:13.844Z,8.30
2022-10-22T23:58:18.641Z,9.67
